Time;durP1;ratioP1;P1;durP2;ratioP2;P2;SDS_P1;SDS_P2;PMS_P1;PMS_P2;Temp;Humidity;BMP_temperature;BMP_pressure;BME280_temperature;BME280_humidity;BME280_pressure;Samples;Min_cycle;Max_cycle;Signal;HPM_P1;HPM_P2
2020/07/25 00:00:56;;;;;;;3.6;3;;;;;;;;;;;;;
2020/07/25 00:03:21;;;;;;;5.1;3;;;;;;;;;;;;;
2020/07/25 00:05:48;;;;;;;3.2;2.9;;;;;;;;;;;;;
2020/07/25 00:08:13;;;;;;;4.1;3.1;;;;;;;;;;;;;
2020/07/25 00:10:39;;;;;;;4.2;2.8;;;;;;;;;;;;;
2020/07/25 00:13:04;;;;;;;3.6;2.8;;;;;;;;;;;;;
2020/07/25 00:15:32;;;;;;;3.4;3;;;;;;;;;;;;;
2020/07/25 00:17:57;;;;;;;4.1;3.2;;;;;;;;;;;;;
2020/07/25 00:20:22;;;;;;;3.4;3;;;;;;;;;;;;;
2020/07/25 00:22:47;;;;;;;7.1;3;;;;;;;;;;;;;
2020/07/25 00:25:13;;;;;;;5.4;3.1;;;;;;;;;;;;;
2020/07/25 00:27:38;;;;;;;2.9;2.4;;;;;;;;;;;;;
2020/07/25 00:30:04;;;;;;;4.8;2.7;;;;;;;;;;;;;
2020/07/25 00:32:29;;;;;;;4.4;2.9;;;;;;;;;;;;;
2020/07/25 00:34:55;;;;;;;4.2;2.8;;;;;;;;;;;;;
2020/07/25 00:37:20;;;;;;;3.8;3.1;;;;;;;;;;;;;
2020/07/25 00:39:46;;;;;;;3.4;2.9;;;;;;;;;;;;;
2020/07/25 00:42:11;;;;;;;4;3.2;;;;;;;;;;;;;
2020/07/25 00:44:36;;;;;;;3.6;2.7;;;;;;;;;;;;;
2020/07/25 00:47:01;;;;;;;4.4;2.9;;;;;;;;;;;;;
2020/07/25 00:49:26;;;;;;;4.3;2.7;;;;;;;;;;;;;
2020/07/25 00:51:51;;;;;;;4.8;2.8;;;;;;;;;;;;;
2020/07/25 00:54:16;;;;;;;5.6;2.7;;;;;;;;;;;;;
2020/07/25 00:56:41;;;;;;;4.4;2.7;;;;;;;;;;;;;
2020/07/25 00:59:06;;;;;;;5.1;2.7;;;;;;;;;;;;;
2020/07/25 01:01:33;;;;;;;3;2.8;;;;;;;;;;;;;
2020/07/25 01:03:58;;;;;;;3.6;2.7;;;;;;;;;;;;;
2020/07/25 01:06:23;;;;;;;3.4;2.7;;;;;;;;;;;;;
2020/07/25 01:08:48;;;;;;;4.7;3;;;;;;;;;;;;;
2020/07/25 01:11:13;;;;;;;3.7;2.8;;;;;;;;;;;;;
2020/07/25 01:13:38;;;;;;;3.3;3;;;;;;;;;;;;;
2020/07/25 01:16:03;;;;;;;6.8;3.1;;;;;;;;;;;;;
2020/07/25 01:18:28;;;;;;;5;3;;;;;;;;;;;;;
2020/07/25 01:20:54;;;;;;;5.6;3;;;;;;;;;;;;;
2020/07/25 01:23:19;;;;;;;4;2.9;;;;;;;;;;;;;
2020/07/25 01:25:44;;;;;;;3;2.6;;;;;;;;;;;;;
2020/07/25 01:28:09;;;;;;;3.3;2.6;;;;;;;;;;;;;
2020/07/25 01:30:34;;;;;;;4.1;2.7;;;;;;;;;;;;;
2020/07/25 01:32:59;;;;;;;4.9;2.7;;;;;;;;;;;;;
2020/07/25 01:35:24;;;;;;;6.4;3.2;;;;;;;;;;;;;
2020/07/25 01:37:50;;;;;;;5.4;3;;;;;;;;;;;;;
2020/07/25 01:40:15;;;;;;;4.7;2.8;;;;;;;;;;;;;
2020/07/25 01:42:40;;;;;;;5.2;2.6;;;;;;;;;;;;;
2020/07/25 01:45:05;;;;;;;5.5;2.9;;;;;;;;;;;;;
2020/07/25 01:47:30;;;;;;;4.6;2.7;;;;;;;;;;;;;
2020/07/25 01:49:55;;;;;;;3;2.7;;;;;;;;;;;;;
2020/07/25 01:52:20;;;;;;;4.3;3;;;;;;;;;;;;;
2020/07/25 01:54:46;;;;;;;3;2.7;;;;;;;;;;;;;
2020/07/25 01:57:11;;;;;;;4.4;2.9;;;;;;;;;;;;;
2020/07/25 01:59:36;;;;;;;6.5;2.8;;;;;;;;;;;;;
2020/07/25 02:02:02;;;;;;;3.5;2.3;;;;;;;;;;;;;
2020/07/25 02:04:27;;;;;;;3.1;2.5;;;;;;;;;;;;;
2020/07/25 02:06:53;;;;;;;2.7;2.4;;;;;;;;;;;;;
2020/07/25 02:09:18;;;;;;;4.1;2.8;;;;;;;;;;;;;
2020/07/25 02:11:44;;;;;;;5.8;2.5;;;;;;;;;;;;;
2020/07/25 02:14:10;;;;;;;3.9;2.4;;;;;;;;;;;;;
2020/07/25 02:16:35;;;;;;;4.7;2.4;;;;;;;;;;;;;
2020/07/25 02:19:01;;;;;;;2.8;2.3;;;;;;;;;;;;;
2020/07/25 02:21:26;;;;;;;4.2;2.4;;;;;;;;;;;;;
2020/07/25 02:23:51;;;;;;;5.6;2.9;;;;;;;;;;;;;
2020/07/25 02:26:16;;;;;;;3.3;2.9;;;;;;;;;;;;;
2020/07/25 02:28:42;;;;;;;5;2.7;;;;;;;;;;;;;
2020/07/25 02:31:07;;;;;;;3.8;2.5;;;;;;;;;;;;;
2020/07/25 02:33:32;;;;;;;3.5;2.8;;;;;;;;;;;;;
2020/07/25 02:35:57;;;;;;;5.3;2.8;;;;;;;;;;;;;
2020/07/25 02:38:22;;;;;;;3;2.5;;;;;;;;;;;;;
2020/07/25 02:40:47;;;;;;;5.5;3.5;;;;;;;;;;;;;
2020/07/25 02:43:14;;;;;;;3.2;2.9;;;;;;;;;;;;;
2020/07/25 02:45:38;;;;;;;3.7;2.8;;;;;;;;;;;;;
2020/07/25 02:48:04;;;;;;;7.6;3;;;;;;;;;;;;;
2020/07/25 02:50:30;;;;;;;3.5;3.1;;;;;;;;;;;;;
2020/07/25 02:52:56;;;;;;;4.2;3;;;;;;;;;;;;;
2020/07/25 02:55:21;;;;;;;3.7;3.1;;;;;;;;;;;;;
2020/07/25 02:57:47;;;;;;;5.1;3.1;;;;;;;;;;;;;
2020/07/25 03:00:12;;;;;;;3.2;2.7;;;;;;;;;;;;;
2020/07/25 03:02:37;;;;;;;3.7;2.7;;;;;;;;;;;;;
2020/07/25 03:05:03;;;;;;;2.8;2.4;;;;;;;;;;;;;
2020/07/25 03:07:28;;;;;;;4.8;2.8;;;;;;;;;;;;;
2020/07/25 03:09:53;;;;;;;3;2.3;;;;;;;;;;;;;
2020/07/25 03:12:18;;;;;;;4.1;2.5;;;;;;;;;;;;;
2020/07/25 03:14:43;;;;;;;6.1;2.5;;;;;;;;;;;;;
2020/07/25 03:17:08;;;;;;;4.5;2.5;;;;;;;;;;;;;
2020/07/25 03:19:34;;;;;;;5.1;2.4;;;;;;;;;;;;;
2020/07/25 03:21:59;;;;;;;6.1;2.5;;;;;;;;;;;;;
2020/07/25 03:24:24;;;;;;;3.5;2.8;;;;;;;;;;;;;
2020/07/25 03:26:49;;;;;;;3.5;2.3;;;;;;;;;;;;;
2020/07/25 03:29:14;;;;;;;4.5;2.4;;;;;;;;;;;;;
2020/07/25 03:31:39;;;;;;;4.2;2.5;;;;;;;;;;;;;
2020/07/25 03:34:05;;;;;;;3.6;2.7;;;;;;;;;;;;;
2020/07/25 03:36:30;;;;;;;6;2.4;;;;;;;;;;;;;
2020/07/25 03:38:55;;;;;;;2.8;2.5;;;;;;;;;;;;;
2020/07/25 03:41:23;;;;;;;6.6;2.8;;;;;;;;;;;;;
2020/07/25 03:43:48;;;;;;;3.9;2.5;;;;;;;;;;;;;
2020/07/25 03:46:13;;;;;;;3.3;2.3;;;;;;;;;;;;;
2020/07/25 03:48:38;;;;;;;4.8;2.6;;;;;;;;;;;;;
2020/07/25 03:51:04;;;;;;;3.3;2.3;;;;;;;;;;;;;
2020/07/25 03:53:29;;;;;;;4.5;2.2;;;;;;;;;;;;;
2020/07/25 03:55:54;;;;;;;4.5;2.3;;;;;;;;;;;;;
2020/07/25 03:58:19;;;;;;;3.7;2.3;;;;;;;;;;;;;
2020/07/25 04:02:31;;;;;;;3.3;2.3;;;;;;;16.65;86.47168;937.7728;;;;
2020/07/25 04:04:56;;;;;;;2.6;2.3;;;;;;;16.63;86.73438;937.8011;;;;
2020/07/25 04:07:22;;;;;;;2.8;2.2;;;;;;;16.67;86.28027;937.8186;;;;
2020/07/25 04:09:47;;;;;;;3.3;2.4;;;;;;;16.62;86.81348;937.7997;;;;
2020/07/25 04:12:12;;;;;;;3.1;2.4;;;;;;;16.56;87.40332;937.8181;;;;
2020/07/25 04:14:37;;;;;;;3.6;2;;;;;;;16.34;88.12402;937.8055;;;;
2020/07/25 04:17:02;;;;;;;3.4;2.1;;;;;;;16.31;88.15137;937.7932;;;;
2020/07/25 04:19:27;;;;;;;6.9;2.5;;;;;;;16.36;87.89746;937.7834;;;;
2020/07/25 04:21:53;;;;;;;5.6;2.2;;;;;;;16.42;87.78125;937.7685;;;;
2020/07/25 04:24:18;;;;;;;5.8;2.1;;;;;;;16.48;87.45605;937.8585;;;;
2020/07/25 04:26:43;;;;;;;2.5;2;;;;;;;16.54;86.78613;937.9131;;;;
2020/07/25 04:29:09;;;;;;;3.4;2.2;;;;;;;16.52;86.70117;937.8917;;;;
2020/07/25 04:31:34;;;;;;;3.9;2;;;;;;;16.45;86.84961;937.8878;;;;
2020/07/25 04:33:59;;;;;;;3.9;2;;;;;;;16.53;86.43848;937.9059;;;;
2020/07/25 04:36:25;;;;;;;4.3;2.1;;;;;;;16.57;86.43262;937.8323;;;;
2020/07/25 04:38:51;;;;;;;3.4;2.1;;;;;;;16.61;86.26563;937.8358;;;;
2020/07/25 04:41:16;;;;;;;4.1;2.3;;;;;;;16.58;86.62109;937.865;;;;
2020/07/25 04:43:41;;;;;;;2.4;2;;;;;;;16.65;86.80762;937.887;;;;
2020/07/25 04:46:06;;;;;;;7.1;2.6;;;;;;;16.6;86.45117;937.9138;;;;
2020/07/25 04:48:34;;;;;;;4.4;2.6;;;;;;;16.63;86.58398;937.9233;;;;
2020/07/25 04:50:59;;;;;;;5.6;2.1;;;;;;;16.64;86.13574;937.9064;;;;
2020/07/25 04:53:24;;;;;;;2.9;2.1;;;;;;;16.59;86.48438;937.9348;;;;
2020/07/25 04:55:49;;;;;;;4.7;2.3;;;;;;;16.6;86.81055;937.9484;;;;
2020/07/25 04:58:14;;;;;;;3.1;2.4;;;;;;;16.67;86.97461;937.9504;;;;
2020/07/25 05:00:41;;;;;;;3.6;2.3;;;;;;;16.68;86.91699;938.0308;;;;
2020/07/25 05:03:06;;;;;;;3.2;2.1;;;;;;;16.67;86.56934;938.0123;;;;
2020/07/25 05:05:34;;;;;;;3.3;2.2;;;;;;;16.56;86.09668;938.0455;;;;
2020/07/25 05:07:59;;;;;;;4.7;2.3;;;;;;;16.45;87.24121;938.0864;;;;
2020/07/25 05:10:24;;;;;;;5.4;2.2;;;;;;;16.45;87.47266;938.0479;;;;
2020/07/25 05:12:49;;;;;;;5.3;2.2;;;;;;;16.5;88.08691;938.0422;;;;
2020/07/25 05:15:25;;;;;;;4.4;2.2;;;;;;;16.54;87.92285;938.0762;;;;
2020/07/25 05:17:53;;;;;;;2.6;2;;;;;;;16.52;87.53516;938.0508;;;;
2020/07/25 05:20:18;;;;;;;4.2;2.4;;;;;;;16.57;87.21973;938.0453;;;;
2020/07/25 05:22:45;;;;;;;3;2.2;;;;;;;16.61;86.99707;938.0609;;;;
2020/07/25 05:25:10;;;;;;;4.2;2.1;;;;;;;16.65;87.67578;938.0977;;;;
2020/07/25 05:27:37;;;;;;;3.5;2.3;;;;;;;16.73;87.81934;938.149;;;;
2020/07/25 05:30:02;;;;;;;3.4;2;;;;;;;16.68;87.77441;938.1609;;;;
2020/07/25 05:32:27;;;;;;;3.2;1.9;;;;;;;16.65;87.72266;938.157;;;;
2020/07/25 05:34:53;;;;;;;4.7;2.1;;;;;;;16.67;86.84766;938.1354;;;;
2020/07/25 05:37:18;;;;;;;5.4;2.3;;;;;;;16.67;86.5;938.133;;;;
2020/07/25 05:39:45;;;;;;;3.1;2;;;;;;;16.74;86.46777;938.1312;;;;
2020/07/25 05:42:10;;;;;;;3.4;2.1;;;;;;;16.86;87.13965;938.1827;;;;
2020/07/25 05:44:37;;;;;;;5.3;2.1;;;;;;;16.85;85.79492;938.199;;;;
2020/07/25 05:47:02;;;;;;;4;1.9;;;;;;;16.76;85.4873;938.2072;;;;
2020/07/25 05:49:27;;;;;;;4.5;2.1;;;;;;;16.75;86.02832;938.139;;;;
2020/07/25 05:51:54;;;;;;;4.6;1.8;;;;;;;16.82;85.95117;938.1866;;;;
2020/07/25 05:54:21;;;;;;;4.3;2.1;;;;;;;16.84;85.57129;938.1477;;;;
2020/07/25 05:56:48;;;;;;;4;1.9;;;;;;;16.94;85.08008;938.1149;;;;
2020/07/25 05:59:13;;;;;;;2.4;1.9;;;;;;;17.01;84.81641;938.1998;;;;
2020/07/25 06:01:38;;;;;;;2.9;1.9;;;;;;;16.98;84.55566;938.2098;;;;
2020/07/25 06:04:06;;;;;;;3.1;1.9;;;;;;;17;84.64063;938.2177;;;;
2020/07/25 06:06:46;;;;;;;3.8;1.7;;;;;;;17.02;84.58594;938.2375;;;;
2020/07/25 06:08:57;;;;;;;2.8;1.7;;;;;;;17.14;84.43652;938.248;;;;
2020/07/25 06:11:23;;;;;;;3.6;2.3;;;;;;;17.32;84.44629;938.2389;;;;
2020/07/25 06:13:49;;;;;;;3.5;1.7;;;;;;;17.27;84.11523;938.2172;;;;
2020/07/25 06:16:15;;;;;;;2.8;1.8;;;;;;;17.46;83.32617;938.2457;;;;
2020/07/25 06:18:53;;;;;;;3.1;1.7;;;;;;;17.56;83.53027;938.2416;;;;
2020/07/25 06:21:08;;;;;;;2.4;1.7;;;;;;;17.7;83.22168;938.2549;;;;
2020/07/25 06:23:33;;;;;;;4.4;1.8;;;;;;;17.9;82.52734;938.2951;;;;
2020/07/25 06:26:04;;;;;;;6.2;1.9;;;;;;;18.09;80.54102;938.2942;;;;
2020/07/25 06:28:32;;;;;;;3.2;1.6;;;;;;;18.15;81.16699;938.2745;;;;
2020/07/25 06:31:00;;;;;;;3.6;1.7;;;;;;;18.24;78.80176;938.2456;;;;
2020/07/25 06:33:25;;;;;;;4;1.5;;;;;;;18.49;78.42676;938.3635;;;;
2020/07/25 06:35:56;;;;;;;4.4;1.5;;;;;;;18.68;78.07813;938.3792;;;;
2020/07/25 06:38:25;;;;;;;7.1;1.6;;;;;;;18.68;78.00781;938.4092;;;;
2020/07/25 06:40:50;;;;;;;1.8;1.4;;;;;;;19.02;78.83691;938.3655;;;;
2020/07/25 06:43:16;;;;;;;4;1.8;;;;;;;19.47;77.30957;938.3484;;;;
2020/07/25 06:45:49;;;;;;;3.1;1.6;;;;;;;19.67;75.4541;938.3789;;;;
2020/07/25 06:48:18;;;;;;;3.2;1.4;;;;;;;19.64;73.44629;938.3876;;;;
2020/07/25 06:50:43;;;;;;;4.1;1.5;;;;;;;19.71;74.64551;938.3317;;;;
2020/07/25 06:53:08;;;;;;;3.9;1.6;;;;;;;19.59;72.7627;938.3464;;;;
2020/07/25 06:55:35;;;;;;;5.4;1.5;;;;;;;19.66;72.41113;938.2441;;;;
2020/07/25 06:58:00;;;;;;;3.6;1.5;;;;;;;19.98;72.18359;938.2386;;;;
2020/07/25 07:00:37;;;;;;;1.6;1.3;;;;;;;20.28;71.79004;938.2266;;;;
2020/07/25 07:03:02;;;;;;;2.6;1.2;;;;;;;20.71;71.2041;938.2402;;;;
2020/07/25 07:05:29;;;;;;;4.9;1.4;;;;;;;22.3;64.93945;938.2227;;;;
2020/07/25 07:07:54;;;;;;;3.8;1.1;;;;;;;22.69;62.83691;938.2056;;;;
2020/07/25 07:10:23;;;;;;;4.3;1.3;;;;;;;22.48;63.24023;938.0972;;;;
2020/07/25 07:12:52;;;;;;;2.9;1.3;;;;;;;22.14;63.35742;938.1656;;;;
2020/07/25 07:15:26;;;;;;;4.2;1.2;;;;;;;22.73;61.87988;938.1149;;;;
2020/07/25 07:17:51;;;;;;;3.3;1.1;;;;;;;23.84;57.02051;938.0388;;;;
2020/07/25 07:20:16;;;;;;;4;1.1;;;;;;;25.29;52.88477;937.9767;;;;
2020/07/25 07:22:41;;;;;;;8.2;1.4;;;;;;;26.42;48.27051;937.9892;;;;
2020/07/25 07:25:14;;;;;;;4.2;0.9;;;;;;;26.89;44.93262;937.9603;;;;
2020/07/25 07:27:39;;;;;;;2.3;0.9;;;;;;;27.03;45.7998;937.9096;;;;
2020/07/25 07:30:08;;;;;;;3.5;0.9;;;;;;;28.78;41.40918;937.8594;;;;
2020/07/25 07:32:33;;;;;;;1.5;0.6;;;;;;;29.25;42.72656;937.8353;;;;
2020/07/25 07:35:01;;;;;;;1.4;0.8;;;;;;;29.73;38.90918;937.8876;;;;
2020/07/25 07:37:26;;;;;;;2.3;0.8;;;;;;;31.48;38.19824;937.9169;;;;
2020/07/25 07:39:51;;;;;;;1.7;0.8;;;;;;;31.86;36.93652;937.9039;;;;
2020/07/25 07:42:24;;;;;;;2.6;0.9;;;;;;;33.16;32.72852;937.8738;;;;
2020/07/25 07:44:55;;;;;;;3.6;0.7;;;;;;;33.71;32.80469;937.8872;;;;
2020/07/25 07:47:23;;;;;;;0.8;0.6;;;;;;;33.48;34.16992;937.8521;;;;
2020/07/25 07:49:54;;;;;;;2;0.7;;;;;;;33.67;30.68359;937.7897;;;;
2020/07/25 07:52:20;;;;;;;1;0.6;;;;;;;34.53;32.05566;937.8493;;;;
2020/07/25 07:54:45;;;;;;;3.3;0.6;;;;;;;33.64;30.2373;937.7759;;;;
2020/07/25 07:57:10;;;;;;;1.7;0.8;;;;;;;32.49;31.78125;937.8281;;;;
2020/07/25 07:59:36;;;;;;;2.9;0.8;;;;;;;32.93;32.25586;937.8248;;;;
2020/07/25 08:02:03;;;;;;;2.1;0.7;;;;;;;31.89;33.78809;937.8002;;;;
2020/07/25 08:04:28;;;;;;;0.9;0.7;;;;;;;33.32;34.71191;937.7742;;;;
2020/07/25 08:06:54;;;;;;;1.1;0.7;;;;;;;30.63;34.30273;937.7495;;;;
2020/07/25 08:09:19;;;;;;;1.6;0.7;;;;;;;30.11;37.97559;937.7316;;;;
2020/07/25 08:11:44;;;;;;;1.8;0.7;;;;;;;31.45;35.77734;937.7061;;;;
2020/07/25 08:14:11;;;;;;;2.1;0.8;;;;;;;30.85;37.83496;937.6687;;;;
2020/07/25 08:16:37;;;;;;;4.2;0.8;;;;;;;31.35;37.4209;937.6661;;;;
2020/07/25 08:19:02;;;;;;;2.7;0.7;;;;;;;31.83;37.31641;937.5478;;;;
2020/07/25 08:21:28;;;;;;;1.6;0.7;;;;;;;31.17;42.04785;937.6217;;;;
2020/07/25 08:23:54;;;;;;;2.3;0.7;;;;;;;32.4;36.12891;937.5911;;;;
2020/07/25 08:26:20;;;;;;;0.9;0.7;;;;;;;33.45;33.83105;937.5634;;;;
2020/07/25 08:28:45;;;;;;;2.1;0.8;;;;;;;34.25;31.45801;937.5559;;;;
2020/07/25 08:31:10;;;;;;;4.6;1;;;;;;;34.41;33.02246;937.5616;;;;
2020/07/25 08:33:38;;;;;;;3.7;0.8;;;;;;;35.96;28.19043;937.6074;;;;
2020/07/25 08:36:03;;;;;;;2.4;0.7;;;;;;;35.15;29.67383;937.5765;;;;
2020/07/25 08:38:32;;;;;;;2.2;0.7;;;;;;;33.57;30.8457;937.4933;;;;
2020/07/25 08:40:57;;;;;;;3;0.8;;;;;;;31.98;33.63867;937.4942;;;;
2020/07/25 08:43:24;;;;;;;3.3;0.8;;;;;;;30.28;39.29004;937.5398;;;;
2020/07/25 08:45:58;;;;;;;2.2;0.9;;;;;;;28.81;41.65039;937.5023;;;;
2020/07/25 08:48:23;;;;;;;2.1;0.8;;;;;;;28.22;39.36133;937.4572;;;;
2020/07/25 08:50:48;;;;;;;2.5;1;;;;;;;29.87;39.55273;937.491;;;;
2020/07/25 08:53:16;;;;;;;4.2;0.8;;;;;;;31.05;37.50391;937.4595;;;;
2020/07/25 08:55:41;;;;;;;1.7;0.8;;;;;;;31.64;36.22363;937.4913;;;;
2020/07/25 08:58:07;;;;;;;2.7;0.7;;;;;;;30.91;33.94141;937.5095;;;;
2020/07/25 09:00:36;;;;;;;2.4;0.8;;;;;;;29.76;38.42383;937.4948;;;;
2020/07/25 09:03:04;;;;;;;2.7;0.8;;;;;;;28.96;42.02148;937.4533;;;;
2020/07/25 09:05:29;;;;;;;2;1;;;;;;;28.05;43.04102;937.4407;;;;
2020/07/25 09:07:56;;;;;;;5.1;0.9;;;;;;;27.06;47.75977;937.4534;;;;
2020/07/25 09:10:21;;;;;;;3.7;0.9;;;;;;;26.01;50.75781;937.493;;;;
2020/07/25 09:12:47;;;;;;;3.1;0.9;;;;;;;25.76;49.16992;937.4408;;;;
2020/07/25 09:15:12;;;;;;;3.6;1;;;;;;;25.16;52.01953;937.4358;;;;
2020/07/25 09:17:37;;;;;;;2.1;0.9;;;;;;;25.05;50.51953;937.4786;;;;
2020/07/25 09:20:03;;;;;;;10.6;1.5;;;;;;;24.99;51.16113;937.4493;;;;
2020/07/25 09:22:30;;;;;;;3.7;1.1;;;;;;;24.5;54.59473;937.5302;;;;
2020/07/25 09:24:55;;;;;;;3.2;1;;;;;;;24.12;57.41016;937.4892;;;;
2020/07/25 09:27:20;;;;;;;3.6;1.3;;;;;;;23.71;59.73145;937.5336;;;;
2020/07/25 09:29:47;;;;;;;4.2;1;;;;;;;23.33;61.26855;937.5338;;;;
2020/07/25 09:32:12;;;;;;;4.1;1.1;;;;;;;23.24;63.23145;937.5336;;;;
2020/07/25 09:34:37;;;;;;;3.7;1.1;;;;;;;23.2;62.74414;937.5143;;;;
2020/07/25 09:37:04;;;;;;;3.3;1.1;;;;;;;23.27;62.1416;937.5287;;;;
2020/07/25 09:39:29;;;;;;;4.7;1.4;;;;;;;23.44;61.40137;937.4199;;;;
2020/07/25 09:41:54;;;;;;;3.8;1.2;;;;;;;23.57;62.47754;937.4832;;;;
2020/07/25 09:44:20;;;;;;;5.4;1.2;;;;;;;23.72;61.5;937.4881;;;;
2020/07/25 09:46:45;;;;;;;4.4;1.5;;;;;;;23.79;63.6875;937.4802;;;;
2020/07/25 09:49:12;;;;;;;5.6;1.7;;;;;;;23.63;63.32129;937.489;;;;
2020/07/25 09:51:37;;;;;;;4.2;1.5;;;;;;;23.76;59.29199;937.4241;;;;
2020/07/25 09:54:02;;;;;;;3.5;1.3;;;;;;;23.95;55.59863;937.473;;;;
2020/07/25 09:56:27;;;;;;;2.4;1.2;;;;;;;24.21;54.67676;937.3981;;;;
2020/07/25 09:58:52;;;;;;;3.6;1.2;;;;;;;24.69;54.2168;937.468;;;;
2020/07/25 10:01:17;;;;;;;2.9;1;;;;;;;25.39;51.40723;937.4861;;;;
2020/07/25 10:03:43;;;;;;;4.9;1.2;;;;;;;26.61;51.2041;937.5317;;;;
2020/07/25 10:06:08;;;;;;;3.2;0.8;;;;;;;27.79;47.21973;937.4833;;;;
2020/07/25 10:08:37;;;;;;;2.3;0.8;;;;;;;29.04;45.5166;937.4422;;;;
2020/07/25 10:11:02;;;;;;;8.2;2.1;;;;;;;29.84;44.48828;937.4292;;;;
2020/07/25 10:13:30;;;;;;;83.6;23.1;;;;;;;30.2;43.21094;937.4497;;;;
2020/07/25 10:15:55;;;;;;;43.1;12.7;;;;;;;30.07;40.70508;937.5011;;;;
2020/07/25 10:18:22;;;;;;;9.2;2.6;;;;;;;29.61;43.36914;937.4875;;;;
2020/07/25 10:20:49;;;;;;;7.4;2.7;;;;;;;29.67;41.91992;937.4894;;;;
2020/07/25 10:23:14;;;;;;;6.3;2;;;;;;;29.34;42.30664;937.4767;;;;
2020/07/25 10:25:39;;;;;;;4.8;1.2;;;;;;;28.96;42.13965;937.4749;;;;
2020/07/25 10:28:04;;;;;;;3.2;1;;;;;;;27.82;44.41992;937.475;;;;
2020/07/25 10:30:33;;;;;;;5.2;1.5;;;;;;;27.21;46.33008;937.5594;;;;
2020/07/25 10:32:58;;;;;;;11.1;3.8;;;;;;;26.74;46.81348;937.5183;;;;
2020/07/25 10:35:26;;;;;;;6.5;1.4;;;;;;;26.15;48.26563;937.592;;;;
2020/07/25 10:37:51;;;;;;;5.2;1.4;;;;;;;25.82;50.9834;937.5309;;;;
2020/07/25 10:40:23;;;;;;;3.5;1.2;;;;;;;25.29;50.47559;937.5964;;;;
2020/07/25 10:42:48;;;;;;;3;1.3;;;;;;;25.28;52.24512;937.5559;;;;
2020/07/25 10:45:15;;;;;;;5.5;2.1;;;;;;;25.06;50.47363;937.5916;;;;
2020/07/25 10:47:42;;;;;;;8.3;2.1;;;;;;;25.08;49.44824;937.5864;;;;
2020/07/25 10:50:07;;;;;;;4.8;1.2;;;;;;;24.8;51.19824;937.55;;;;
2020/07/25 10:52:32;;;;;;;6.3;1.5;;;;;;;24.57;52.8457;937.5709;;;;
2020/07/25 10:54:57;;;;;;;3.3;1.5;;;;;;;24.24;56.51758;937.5217;;;;
2020/07/25 10:57:22;;;;;;;8.9;4.6;;;;;;;24.33;59.14648;937.5781;;;;
2020/07/25 10:59:48;;;;;;;8;4.5;;;;;;;24.3;60.18945;937.5714;;;;
2020/07/25 11:02:14;;;;;;;6.3;2.3;;;;;;;24.25;57.28613;937.561;;;;
2020/07/25 11:04:39;;;;;;;3.4;1.8;;;;;;;24.13;58.4707;937.5517;;;;
2020/07/25 11:07:04;;;;;;;3.6;1.3;;;;;;;23.86;58.99902;937.6136;;;;
2020/07/25 11:09:31;;;;;;;10.3;2.7;;;;;;;23.95;56.97656;937.5769;;;;
2020/07/25 11:11:56;;;;;;;6.9;1.9;;;;;;;24.05;56.58789;937.5372;;;;
2020/07/25 11:14:21;;;;;;;3.7;1.1;;;;;;;24.07;57.72168;937.5272;;;;
2020/07/25 11:16:46;;;;;;;3.6;1.5;;;;;;;24.15;57.93164;937.5765;;;;
2020/07/25 11:19:11;;;;;;;6.5;1.5;;;;;;;24.18;57.33398;937.5683;;;;
2020/07/25 11:21:36;;;;;;;2.6;1.3;;;;;;;24.24;55.7168;937.6177;;;;
2020/07/25 11:24:01;;;;;;;3.5;1.4;;;;;;;24.39;57.33887;937.6259;;;;
2020/07/25 11:26:27;;;;;;;4.8;2;;;;;;;24.3;58.58789;937.6348;;;;
2020/07/25 11:28:52;;;;;;;9.9;3.3;;;;;;;24.36;53.77539;937.6177;;;;
2020/07/25 11:31:19;;;;;;;4.6;2.6;;;;;;;24.39;52.97852;937.5831;;;;
2020/07/25 11:33:44;;;;;;;2.8;1.5;;;;;;;24.52;55.96387;937.5767;;;;
2020/07/25 11:36:11;;;;;;;6.1;2;;;;;;;24.58;57.05664;937.6232;;;;
2020/07/25 11:38:36;;;;;;;5.6;2.2;;;;;;;24.73;56.5332;937.632;;;;
2020/07/25 11:41:04;;;;;;;6.1;1.8;;;;;;;24.72;56.80273;937.5797;;;;
2020/07/25 11:43:29;;;;;;;3.3;1.5;;;;;;;24.57;56.86523;937.6197;;;;
2020/07/25 11:46:02;;;;;;;4.6;1.9;;;;;;;24.72;56.87305;937.6044;;;;
2020/07/25 11:48:27;;;;;;;4.1;1.5;;;;;;;24.73;57.57031;937.5818;;;;
2020/07/25 11:50:52;;;;;;;8.1;2.7;;;;;;;24.87;53.83789;937.5175;;;;
2020/07/25 11:53:19;;;;;;;8;1.4;;;;;;;25.04;53.8584;937.5225;;;;
2020/07/25 11:55:44;;;;;;;5.5;1.6;;;;;;;25.13;54.14063;937.5285;;;;
2020/07/25 11:58:09;;;;;;;5.7;1.9;;;;;;;24.98;52.49414;937.531;;;;
2020/07/25 12:00:38;;;;;;;7.2;2.3;;;;;;;25.02;51.87207;937.4621;;;;
2020/07/25 12:03:06;;;;;;;3.3;1.3;;;;;;;25.14;53.77539;937.4883;;;;
2020/07/25 12:05:31;;;;;;;3.7;1.5;;;;;;;25.1;54.51367;937.4811;;;;
2020/07/25 12:07:57;;;;;;;9.4;2.6;;;;;;;25.07;51.92578;937.4891;;;;
2020/07/25 12:10:22;;;;;;;4.2;1.9;;;;;;;25.18;51.82031;937.4944;;;;
2020/07/25 12:12:52;;;;;;;5.4;2.1;;;;;;;25.22;51.29395;937.4936;;;;
2020/07/25 12:15:17;;;;;;;5.8;1.8;;;;;;;25.16;52.44336;937.5094;;;;
2020/07/25 12:17:43;;;;;;;4.8;1.3;;;;;;;25.17;51.46582;937.5187;;;;
2020/07/25 12:20:08;;;;;;;4;1.2;;;;;;;25.02;53.19531;937.532;;;;
2020/07/25 12:22:34;;;;;;;4.9;1.4;;;;;;;25.02;53.4541;937.5003;;;;
2020/07/25 12:24:59;;;;;;;5.7;2;;;;;;;25;53.4043;937.481;;;;
2020/07/25 12:27:26;;;;;;;4.8;1.2;;;;;;;25.04;53.77441;937.5226;;;;
2020/07/25 12:29:51;;;;;;;4.4;1.3;;;;;;;25.08;53.2959;937.5355;;;;
2020/07/25 12:32:18;;;;;;;2.3;1.2;;;;;;;25.01;54.30273;937.5278;;;;
2020/07/25 12:34:43;;;;;;;4;1.2;;;;;;;24.97;56.49121;937.5034;;;;
2020/07/25 12:37:10;;;;;;;3.4;1.2;;;;;;;24.91;58.06543;937.4774;;;;
2020/07/25 12:39:35;;;;;;;4.5;1.3;;;;;;;24.83;56.15527;937.4561;;;;
2020/07/25 12:42:03;;;;;;;6.6;1.8;;;;;;;24.92;54.64648;937.4257;;;;
2020/07/25 12:44:28;;;;;;;9.2;2;;;;;;;24.97;53.12988;937.3875;;;;
2020/07/25 12:46:53;;;;;;;5.5;1.7;;;;;;;25.15;55.38184;937.3397;;;;
2020/07/25 12:49:18;;;;;;;3.4;1.2;;;;;;;25.3;55.1416;937.3854;;;;
2020/07/25 12:51:44;;;;;;;3.3;1.3;;;;;;;25.4;56.36914;937.3864;;;;
2020/07/25 12:54:09;;;;;;;5.8;1.2;;;;;;;25.5;54.2666;937.354;;;;
2020/07/25 12:56:37;;;;;;;4.9;1.4;;;;;;;25.78;55.31738;937.4113;;;;
2020/07/25 12:59:02;;;;;;;3.2;1.4;;;;;;;26.11;52.37793;937.4073;;;;
2020/07/25 13:01:27;;;;;;;3;1.1;;;;;;;26.39;50.77734;937.3987;;;;
2020/07/25 13:03:52;;;;;;;4.3;1.2;;;;;;;26.55;49.53906;937.4045;;;;
2020/07/25 13:06:17;;;;;;;4.3;1.1;;;;;;;26.72;49.08496;937.3677;;;;
2020/07/25 13:08:42;;;;;;;2.7;1;;;;;;;27.04;49.51172;937.3597;;;;
2020/07/25 13:11:09;;;;;;;3.9;1.3;;;;;;;27.27;47.60352;937.2566;;;;
2020/07/25 13:13:34;;;;;;;2.7;1.3;;;;;;;27.31;47.22852;937.1616;;;;
2020/07/25 13:16:01;;;;;;;3.9;1.3;;;;;;;27.67;46.7207;937.1777;;;;
2020/07/25 13:18:26;;;;;;;3.1;1;;;;;;;27.83;42.01074;937.1169;;;;
2020/07/25 13:20:54;;;;;;;1.4;0.9;;;;;;;27.88;40.91113;937.0965;;;;
2020/07/25 13:23:19;;;;;;;3.9;1.1;;;;;;;27.98;42.90332;937.0563;;;;
2020/07/25 13:25:44;;;;;;;2.5;0.8;;;;;;;28.03;40.83008;937.0094;;;;
2020/07/25 13:28:09;;;;;;;2.9;1;;;;;;;27.5;38.21875;936.997;;;;
2020/07/25 13:30:37;;;;;;;2.5;0.8;;;;;;;27.33;42.76953;937.007;;;;
2020/07/25 13:33:02;;;;;;;3.8;1.2;;;;;;;27.46;43.96973;936.9192;;;;
2020/07/25 13:35:27;;;;;;;2.3;0.9;;;;;;;27.7;44.53906;936.9617;;;;
2020/07/25 13:37:52;;;;;;;3.3;0.9;;;;;;;27.89;39.29688;936.8696;;;;
2020/07/25 13:40:19;;;;;;;5.6;1.2;;;;;;;27.99;42.38184;936.8831;;;;
2020/07/25 13:42:44;;;;;;;1.8;1;;;;;;;27.81;42.08008;936.8153;;;;
2020/07/25 13:45:12;;;;;;;4.4;1;;;;;;;27.79;41.31836;936.7861;;;;
2020/07/25 13:47:38;;;;;;;2.2;1;;;;;;;27.72;42.75977;936.7559;;;;
2020/07/25 13:50:03;;;;;;;4;1.1;;;;;;;27.49;43.2002;936.7256;;;;
2020/07/25 13:52:28;;;;;;;1.9;1;;;;;;;27.66;43.83398;936.7389;;;;
2020/07/25 13:54:54;;;;;;;2.3;0.8;;;;;;;27.73;42.39258;936.6555;;;;
2020/07/25 13:57:19;;;;;;;1.6;0.9;;;;;;;27.78;42.31445;936.6996;;;;
2020/07/25 13:59:46;;;;;;;2.6;1;;;;;;;27.63;42.12305;936.6642;;;;
2020/07/25 14:02:11;;;;;;;1.8;0.7;;;;;;;27.56;41.22656;936.6793;;;;
2020/07/25 14:04:36;;;;;;;1.5;0.8;;;;;;;27.68;42.39941;936.5947;;;;
2020/07/25 14:07:01;;;;;;;4.2;1;;;;;;;27.77;43.92871;936.6102;;;;
2020/07/25 14:09:26;;;;;;;4;1;;;;;;;27.78;41.19922;936.5916;;;;
2020/07/25 14:11:57;;;;;;;3.3;0.9;;;;;;;27.78;42.26758;936.585;;;;
2020/07/25 14:14:26;;;;;;;2.3;0.8;;;;;;;27.81;42.66211;936.6431;;;;
2020/07/25 14:16:54;;;;;;;2.6;0.8;;;;;;;27.85;42.13184;936.6403;;;;
2020/07/25 14:19:19;;;;;;;2.2;1;;;;;;;27.9;41.19824;936.5881;;;;
2020/07/25 14:21:45;;;;;;;2;0.8;;;;;;;27.87;42.15723;936.5359;;;;
2020/07/25 14:24:10;;;;;;;4;0.9;;;;;;;27.75;41.2666;936.5243;;;;
2020/07/25 14:26:35;;;;;;;1.7;0.9;;;;;;;27.35;39.44043;936.5204;;;;
2020/07/25 14:29:00;;;;;;;2.5;0.8;;;;;;;27.3;41.65332;936.5496;;;;
2020/07/25 14:31:27;;;;;;;2.5;0.9;;;;;;;27.25;41.84961;936.5427;;;;
2020/07/25 14:33:52;;;;;;;2.9;0.9;;;;;;;27.12;40.20117;936.537;;;;
2020/07/25 14:36:18;;;;;;;4.9;0.9;;;;;;;26.93;41.68945;936.5524;;;;
2020/07/25 14:38:43;;;;;;;2.5;0.8;;;;;;;26.91;42.4707;936.5204;;;;
2020/07/25 14:41:09;;;;;;;1.9;0.7;;;;;;;26.89;44.11523;936.5233;;;;
2020/07/25 14:43:35;;;;;;;3.8;1;;;;;;;26.95;46.91797;936.4939;;;;
2020/07/25 14:46:03;;;;;;;4.3;1;;;;;;;26.8;45.2666;936.4916;;;;
2020/07/25 14:48:27;;;;;;;4.7;1.1;;;;;;;26.71;44.76074;936.5232;;;;
2020/07/25 14:50:52;;;;;;;6.1;0.8;;;;;;;26.33;44.37988;936.5571;;;;
2020/07/25 14:53:18;;;;;;;3.2;1.2;;;;;;;25.87;45.59863;936.5381;;;;
2020/07/25 14:55:43;;;;;;;4.1;1.1;;;;;;;25.96;45.79688;936.5228;;;;
2020/07/25 14:58:08;;;;;;;2.2;1;;;;;;;25.86;45.70508;936.4839;;;;
2020/07/25 15:00:37;;;;;;;2.4;0.8;;;;;;;25.85;45.5957;936.4113;;;;
2020/07/25 15:03:02;;;;;;;3.1;0.9;;;;;;;25.91;44.37402;936.3931;;;;
2020/07/25 15:05:27;;;;;;;12.7;3.6;;;;;;;25.85;44.27246;936.3817;;;;
2020/07/25 15:07:52;;;;;;;4.3;1.6;;;;;;;25.95;44.98047;936.3823;;;;
2020/07/25 15:10:19;;;;;;;3.3;1.3;;;;;;;26.16;44.41016;936.3301;;;;
2020/07/25 15:12:44;;;;;;;7.1;2.7;;;;;;;26.23;44.94922;936.3187;;;;
2020/07/25 15:15:10;;;;;;;1.7;0.9;;;;;;;25.87;43.42383;936.3234;;;;
2020/07/25 15:17:36;;;;;;;3;1;;;;;;;25.9;45.02246;936.2992;;;;
2020/07/25 15:20:01;;;;;;;2.5;0.8;;;;;;;25.99;46.20313;936.238;;;;
2020/07/25 15:22:27;;;;;;;2.5;1.1;;;;;;;26.18;47.09668;936.2673;;;;
2020/07/25 15:24:52;;;;;;;3.4;1.1;;;;;;;26.14;45.89941;936.2495;;;;
2020/07/25 15:27:18;;;;;;;2.2;0.9;;;;;;;26.21;46.28418;936.2402;;;;
2020/07/25 15:29:43;;;;;;;3.1;0.9;;;;;;;26.14;44.73926;936.1863;;;;
2020/07/25 15:32:08;;;;;;;4.8;1.2;;;;;;;26.21;45.71777;936.1853;;;;
2020/07/25 15:34:33;;;;;;;6;1.4;;;;;;;26.18;46.38672;936.1523;;;;